Time;durP1;ratioP1;P1;durP2;ratioP2;P2;SDS_P1;SDS_P2;PMS_P1;PMS_P2;Temp;Humidity;BMP_temperature;BMP_pressure;BME280_temperature;BME280_humidity;BME280_pressure;Samples;Min_cycle;Max_cycle;Signal;HPM_P1;HPM_P2
2023/03/06 00:00:00;;;;;;;8.80;2.13;;;3.60;99.90;;;;;;5004328;28;20069;-69
2023/03/06 00:02:25;;;;;;;5.53;1.95;;;3.50;99.90;;;;;;4998511;28;20042;-69
2023/03/06 00:04:53;;;;;;;4.68;1.67;;;3.50;99.90;;;;;;4992016;28;20041;-70
2023/03/06 00:07:18;;;;;;;3.50;1.60;;;3.50;99.90;;;;;;4993197;28;20064;-70
2023/03/06 00:09:44;;;;;;;5.15;1.85;;;3.60;99.90;;;;;;4994083;28;20119;-70
2023/03/06 00:12:10;;;;;;;5.40;2.00;;;3.50;99.90;;;;;;4994426;28;20053;-69
2023/03/06 00:14:35;;;;;;;10.57;1.80;;;3.50;99.90;;;;;;4991951;28;20054;-69
2023/03/06 00:17:01;;;;;;;5.20;1.80;;;3.60;99.90;;;;;;5003430;28;20046;-70
2023/03/06 00:19:28;;;;;;;9.70;2.20;;;3.50;99.90;;;;;;4977441;28;20522;-69
2023/03/06 00:21:55;;;;;;;4.80;1.63;;;3.50;99.90;;;;;;4993863;28;20050;-69
2023/03/06 00:24:21;;;;;;;6.15;1.90;;;3.50;99.90;;;;;;5009103;28;20034;-69
2023/03/06 00:26:46;;;;;;;8.85;2.00;;;3.50;99.90;;;;;;4977394;28;20124;-69
2023/03/06 00:29:12;;;;;;;6.30;1.80;;;3.50;99.90;;;;;;4980810;28;20042;-70
2023/03/06 00:31:38;;;;;;;6.22;2.33;;;3.50;99.90;;;;;;4991950;28;20057;-69
2023/03/06 00:34:03;;;;;;;4.95;2.08;;;3.40;99.90;;;;;;5009165;28;20053;-69
2023/03/06 00:36:29;;;;;;;8.68;2.10;;;3.40;99.90;;;;;;5009244;28;20443;-70
2023/03/06 00:38:55;;;;;;;6.80;2.10;;;3.50;99.90;;;;;;4993521;28;20107;-69
2023/03/06 00:41:21;;;;;;;7.25;1.95;;;3.50;99.90;;;;;;4990362;28;20077;-71
2023/03/06 00:43:46;;;;;;;8.43;1.92;;;3.50;99.90;;;;;;4979154;28;20161;-71
2023/03/06 00:46:12;;;;;;;6.65;2.25;;;3.50;99.90;;;;;;4992151;28;20041;-70
2023/03/06 00:48:38;;;;;;;5.63;2.05;;;3.40;99.90;;;;;;5012267;28;20057;-70
2023/03/06 00:51:05;;;;;;;6.07;2.50;;;3.50;99.90;;;;;;4997010;28;20045;-69
2023/03/06 00:53:31;;;;;;;6.82;2.20;;;3.50;99.90;;;;;;5013903;28;20731;-69
2023/03/06 00:55:57;;;;;;;6.28;2.80;;;3.50;99.90;;;;;;5012825;28;20041;-70
2023/03/06 00:58:23;;;;;;;10.23;3.00;;;3.50;99.90;;;;;;5005055;28;20539;-69
2023/03/06 01:00:48;;;;;;;7.60;2.63;;;3.40;99.90;;;;;;4993173;28;20116;-69
2023/03/06 01:03:14;;;;;;;10.52;2.63;;;3.50;99.90;;;;;;4991179;28;20054;-70
2023/03/06 01:05:40;;;;;;;9.95;2.40;;;3.50;99.90;;;;;;5014503;28;20042;-69
2023/03/06 01:08:07;;;;;;;7.05;2.35;;;3.50;99.90;;;;;;5010577;28;20746;-69
2023/03/06 01:10:33;;;;;;;10.90;2.55;;;3.50;99.90;;;;;;5011821;28;20062;-71
2023/03/06 01:12:59;;;;;;;5.10;2.40;;;3.50;99.90;;;;;;4991991;28;20104;-70
2023/03/06 01:15:24;;;;;;;6.32;2.70;;;3.50;99.90;;;;;;5017169;28;20049;-70
2023/03/06 01:17:53;;;;;;;6.72;2.78;;;3.50;99.90;;;;;;5007675;28;20755;-70
2023/03/06 01:20:19;;;;;;;7.82;2.60;;;3.50;99.90;;;;;;4998930;28;20050;-70
2023/03/06 01:22:45;;;;;;;6.45;2.58;;;3.50;99.90;;;;;;5010161;28;20053;-69
2023/03/06 01:25:11;;;;;;;7.97;2.60;;;3.50;99.90;;;;;;4993442;28;20070;-70
2023/03/06 01:27:37;;;;;;;11.15;3.60;;;3.50;99.90;;;;;;5009473;28;20111;-72
2023/03/06 01:30:03;;;;;;;4.72;2.50;;;3.50;99.90;;;;;;5011799;28;20042;-70
2023/03/06 01:32:30;;;;;;;9.02;3.08;;;3.50;99.90;;;;;;5009798;28;20054;-71
2023/03/06 01:34:56;;;;;;;7.50;2.58;;;3.50;99.90;;;;;;4997499;28;20479;-70
2023/03/06 01:37:22;;;;;;;7.93;3.17;;;3.50;99.90;;;;;;5009677;28;20482;-72
2023/03/06 01:39:48;;;;;;;8.70;3.00;;;3.50;99.90;;;;;;4995523;28;20497;-69
2023/03/06 01:42:14;;;;;;;8.32;3.45;;;3.50;99.90;;;;;;4984146;28;20095;-70
2023/03/06 01:44:59;;;;;;;8.98;3.05;;;3.40;99.90;;;;;;5002089;28;20057;-69
2023/03/06 01:47:24;;;;;;;6.45;3.08;;;3.40;99.90;;;;;;5018370;28;20056;-71
2023/03/06 01:49:50;;;;;;;7.75;3.60;;;3.40;99.90;;;;;;4999556;28;20049;-70
2023/03/06 01:52:17;;;;;;;7.60;3.20;;;3.50;99.90;;;;;;4999165;28;20067;-71
2023/03/06 01:54:52;;;;;;;8.63;3.63;;;3.50;99.90;;;;;;5016340;28;20049;-69
2023/03/06 01:57:20;;;;;;;9.50;4.35;;;3.40;99.90;;;;;;5016636;28;20053;-71
2023/03/06 01:59:47;;;;;;;9.13;4.03;;;3.40;99.90;;;;;;5011201;28;20065;-71
2023/03/06 02:02:13;;;;;;;9.95;3.67;;;3.30;99.90;;;;;;4996346;28;20740;-69
2023/03/06 02:04:39;;;;;;;6.70;3.72;;;3.30;99.90;;;;;;5001327;28;20109;-70
2023/03/06 02:07:05;;;;;;;8.95;3.63;;;3.30;99.90;;;;;;5012227;28;20485;-69
2023/03/06 02:09:32;;;;;;;6.22;3.28;;;3.30;99.90;;;;;;4996340;28;20058;-69
2023/03/06 02:11:59;;;;;;;6.53;3.50;;;3.30;99.90;;;;;;5012948;28;20475;-71
2023/03/06 02:14:25;;;;;;;8.02;3.75;;;3.30;99.90;;;;;;5000746;28;20513;-71
2023/03/06 02:16:50;;;;;;;10.32;4.10;;;3.30;99.90;;;;;;4993358;28;20082;-70
2023/03/06 02:19:23;;;;;;;7.65;3.58;;;3.30;99.90;;;;;;5010665;28;20139;-69
2023/03/06 02:21:48;;;;;;;7.97;3.95;;;3.30;99.90;;;;;;4996887;28;20049;-70
2023/03/06 02:24:28;;;;;;;8.43;3.72;;;3.30;99.90;;;;;;4993711;28;20442;-71
2023/03/06 02:26:54;;;;;;;8.73;3.67;;;3.20;99.90;;;;;;5013031;28;20124;-70
2023/03/06 02:29:27;;;;;;;7.38;3.88;;;3.30;99.90;;;;;;5018422;28;20188;-70
2023/03/06 02:31:53;;;;;;;9.10;4.20;;;3.20;99.90;;;;;;5002265;28;20049;-70
2023/03/06 02:34:18;;;;;;;7.93;4.60;;;3.20;99.90;;;;;;5011116;28;20050;-70
2023/03/06 02:36:58;;;;;;;10.95;4.35;;;3.30;99.90;;;;;;4996447;28;20046;-71
2023/03/06 02:39:25;;;;;;;8.07;4.03;;;3.20;99.90;;;;;;4999897;28;20394;-70
2023/03/06 02:41:51;;;;;;;9.85;3.97;;;3.20;99.90;;;;;;5001297;28;20042;-70
2023/03/06 02:44:17;;;;;;;11.70;4.40;;;3.20;99.90;;;;;;4997994;28;20035;-70
2023/03/06 02:46:42;;;;;;;7.22;4.43;;;3.20;99.90;;;;;;5008236;28;20095;-70
2023/03/06 02:49:08;;;;;;;8.52;4.75;;;3.20;99.90;;;;;;5000987;28;20042;-70
2023/03/06 02:51:34;;;;;;;8.68;5.32;;;3.30;99.90;;;;;;4996141;28;20103;-71
2023/03/06 02:53:59;;;;;;;7.88;4.45;;;3.20;99.90;;;;;;4995980;28;20049;-72
2023/03/06 02:56:25;;;;;;;12.75;4.68;;;3.30;99.90;;;;;;5013276;28;20108;-71
2023/03/06 02:58:51;;;;;;;8.57;4.60;;;3.30;99.90;;;;;;5017905;28;20049;-70
2023/03/06 03:01:17;;;;;;;7.78;4.65;;;3.30;99.90;;;;;;4996670;28;20061;-70
2023/03/06 03:03:43;;;;;;;9.50;4.57;;;3.30;99.90;;;;;;5011489;28;20045;-70
2023/03/06 03:06:08;;;;;;;9.95;4.72;;;3.30;99.90;;;;;;5011685;28;20049;-70
2023/03/06 03:08:35;;;;;;;9.82;4.68;;;3.20;99.90;;;;;;4997922;28;20053;-71
2023/03/06 03:11:01;;;;;;;11.95;5.47;;;3.30;99.90;;;;;;5008396;28;20062;-69
2023/03/06 03:13:27;;;;;;;11.18;5.35;;;3.30;99.90;;;;;;4999449;28;20463;-70
2023/03/06 03:16:06;;;;;;;11.65;5.65;;;3.40;99.90;;;;;;4995070;28;20118;-70
2023/03/06 03:18:32;;;;;;;10.73;5.80;;;3.30;99.90;;;;;;4979921;28;20060;-70
2023/03/06 03:20:57;;;;;;;11.18;5.38;;;3.30;99.90;;;;;;5011744;28;20050;-70
2023/03/06 03:23:23;;;;;;;10.68;5.78;;;3.20;99.90;;;;;;4995497;28;20056;-70
2023/03/06 03:25:49;;;;;;;13.88;7.13;;;3.20;99.90;;;;;;5011558;28;20076;-70
2023/03/06 03:28:15;;;;;;;12.75;6.47;;;3.20;99.90;;;;;;4996096;28;20081;-70
2023/03/06 03:30:41;;;;;;;11.95;6.38;;;3.20;99.90;;;;;;4994148;28;20124;-70
2023/03/06 03:33:07;;;;;;;11.80;6.40;;;3.20;99.90;;;;;;4994902;28;20103;-70
2023/03/06 03:35:33;;;;;;;13.85;6.78;;;3.20;99.90;;;;;;5010443;28;20046;-71
2023/03/06 03:37:59;;;;;;;11.70;7.20;;;3.20;99.90;;;;;;4996429;28;20093;-70
2023/03/06 03:40:24;;;;;;;14.40;6.50;;;3.20;99.90;;;;;;5016170;28;20076;-71
2023/03/06 03:42:50;;;;;;;13.05;6.35;;;3.20;99.90;;;;;;4996265;28;20125;-70
2023/03/06 03:45:16;;;;;;;16.60;6.95;;;3.20;99.90;;;;;;5014790;28;20056;-70
2023/03/06 03:47:42;;;;;;;11.77;7.18;;;3.20;99.90;;;;;;4994093;28;20037;-70
2023/03/06 03:50:10;;;;;;;13.48;6.75;;;3.20;99.90;;;;;;4997865;28;20114;-70
2023/03/06 03:52:36;;;;;;;15.23;7.65;;;3.10;99.90;;;;;;4999976;28;20054;-70
2023/03/06 03:55:02;;;;;;;15.82;6.78;;;3.10;99.90;;;;;;4981972;28;20037;-70
2023/03/06 03:57:29;;;;;;;13.18;7.18;;;3.00;99.90;;;;;;4995804;28;20103;-70
2023/03/06 03:59:54;;;;;;;13.52;6.82;;;3.10;99.90;;;;;;5010959;28;20061;-70
2023/03/06 04:02:20;;;;;;;14.57;7.50;;;3.10;99.90;;;;;;4997871;28;20046;-70
2023/03/06 04:04:48;;;;;;;13.77;7.18;;;3.00;99.90;;;;;;5010405;28;20041;-70
2023/03/06 04:07:14;;;;;;;12.45;6.45;;;3.00;99.90;;;;;;4994608;28;20054;-70
2023/03/06 04:09:39;;;;;;;16.48;7.35;;;3.10;99.90;;;;;;4979598;28;20124;-70
2023/03/06 04:12:06;;;;;;;15.07;7.28;;;3.10;99.90;;;;;;5011266;28;20085;-70
2023/03/06 04:14:32;;;;;;;15.23;7.55;;;3.00;99.90;;;;;;5006408;28;20533;-72
2023/03/06 04:16:58;;;;;;;17.67;7.35;;;3.00;99.90;;;;;;5015687;28;20062;-69
2023/03/06 04:19:25;;;;;;;12.80;7.00;;;3.00;99.90;;;;;;5006830;28;20050;-70
2023/03/06 04:21:51;;;;;;;14.35;7.28;;;2.90;99.90;;;;;;5010249;28;20038;-70
2023/03/06 04:24:16;;;;;;;16.20;7.57;;;2.90;99.90;;;;;;4993610;28;20112;-69
2023/03/06 04:26:42;;;;;;;13.52;7.97;;;3.00;99.90;;;;;;4991738;28;20041;-70
2023/03/06 04:29:08;;;;;;;21.88;7.68;;;3.00;99.90;;;;;;5011929;28;20057;-70
2023/03/06 04:31:34;;;;;;;15.45;7.65;;;3.00;99.90;;;;;;5013109;28;20049;-71
2023/03/06 04:34:00;;;;;;;15.00;7.38;;;3.00;99.90;;;;;;4994094;28;20347;-69
2023/03/06 04:36:33;;;;;;;15.18;7.45;;;3.00;99.90;;;;;;4974406;28;20084;-70
2023/03/06 04:38:58;;;;;;;17.83;8.43;;;2.90;99.90;;;;;;5008099;28;20073;-70
2023/03/06 04:41:24;;;;;;;13.07;7.32;;;3.00;99.90;;;;;;5010207;28;20134;-70
2023/03/06 04:43:50;;;;;;;17.15;7.95;;;3.00;99.90;;;;;;5008160;28;20591;-70
2023/03/06 04:46:16;;;;;;;14.70;7.60;;;3.00;99.90;;;;;;4993818;28;20047;-71
2023/03/06 04:48:42;;;;;;;16.15;7.82;;;3.00;99.90;;;;;;5009979;28;20103;-70
2023/03/06 04:51:09;;;;;;;13.30;7.40;;;3.00;99.90;;;;;;5008903;28;20053;-70
2023/03/06 04:53:35;;;;;;;17.38;7.70;;;3.00;99.90;;;;;;5012434;28;20056;-70
2023/03/06 04:56:00;;;;;;;13.35;7.40;;;3.00;99.90;;;;;;4993502;28;20053;-69
2023/03/06 04:58:26;;;;;;;12.82;6.63;;;3.00;99.90;;;;;;5009069;28;20049;-70
2023/03/06 05:00:52;;;;;;;13.40;7.45;;;3.10;99.90;;;;;;5016145;28;20057;-71
2023/03/06 05:03:17;;;;;;;13.88;6.97;;;3.10;99.90;;;;;;5017370;28;20049;-70
2023/03/06 05:05:43;;;;;;;16.85;7.07;;;3.10;99.90;;;;;;4998380;28;20454;-69
2023/03/06 05:08:14;;;;;;;15.93;7.35;;;3.10;99.90;;;;;;4993660;28;20053;-69
2023/03/06 05:10:40;;;;;;;13.98;6.70;;;3.10;99.90;;;;;;4990991;28;20070;-69
2023/03/06 05:13:06;;;;;;;13.80;6.95;;;3.00;99.90;;;;;;4993452;28;20046;-69
2023/03/06 05:15:32;;;;;;;12.50;7.45;;;3.00;99.90;;;;;;4990478;28;20058;-70
2023/03/06 05:17:58;;;;;;;16.80;8.20;;;3.00;99.90;;;;;;4997569;28;20422;-69
2023/03/06 05:20:24;;;;;;;14.95;7.50;;;3.00;99.90;;;;;;5016387;28;20628;-71
2023/03/06 05:22:49;;;;;;;14.75;7.30;;;3.00;99.90;;;;;;5012283;28;20056;-69
2023/03/06 05:25:15;;;;;;;14.95;7.47;;;3.10;99.90;;;;;;5010429;28;20057;-69
2023/03/06 05:27:41;;;;;;;13.55;6.95;;;3.00;99.90;;;;;;5013515;28;20410;-70
2023/03/06 05:30:09;;;;;;;12.77;6.43;;;3.10;99.90;;;;;;4993192;28;20073;-70
2023/03/06 05:32:35;;;;;;;14.77;7.38;;;3.00;99.90;;;;;;5008570;28;20070;-70
2023/03/06 05:35:00;;;;;;;14.32;7.50;;;3.00;99.90;;;;;;4992901;28;20057;-70
2023/03/06 05:37:26;;;;;;;13.40;6.88;;;3.00;99.90;;;;;;5008027;28;20509;-70
2023/03/06 05:39:53;;;;;;;11.27;7.03;;;3.00;99.90;;;;;;5006472;28;20487;-71
2023/03/06 05:42:19;;;;;;;14.55;7.35;;;2.90;99.90;;;;;;5006329;28;20050;-70
2023/03/06 05:44:44;;;;;;;14.23;6.90;;;3.00;99.90;;;;;;5006729;28;20125;-69
2023/03/06 05:47:10;;;;;;;13.80;7.35;;;2.90;99.90;;;;;;4991380;28;20042;-69
2023/03/06 05:49:36;;;;;;;12.05;7.50;;;3.00;99.90;;;;;;5012822;28;20107;-70
2023/03/06 05:52:02;;;;;;;16.38;7.70;;;3.00;99.90;;;;;;5003958;28;20050;-71
2023/03/06 05:54:29;;;;;;;15.40;7.07;;;2.90;99.90;;;;;;5009081;28;20135;-69
2023/03/06 05:56:56;;;;;;;15.30;7.07;;;3.00;99.90;;;;;;5010767;28;20080;-69
2023/03/06 05:59:26;;;;;;;16.75;7.28;;;3.00;99.90;;;;;;4993584;28;20496;-70
2023/03/06 06:01:53;;;;;;;13.10;7.25;;;2.90;99.90;;;;;;4989671;28;20046;-69
2023/03/06 06:04:20;;;;;;;15.88;8.23;;;2.90;99.90;;;;;;4973981;28;20101;-69
2023/03/06 06:06:49;;;;;;;14.40;7.60;;;2.90;99.90;;;;;;5012573;28;20050;-69
2023/03/06 06:09:15;;;;;;;14.52;8.10;;;2.90;99.90;;;;;;5005638;28;20097;-70
2023/03/06 06:11:41;;;;;;;13.02;7.90;;;3.00;99.90;;;;;;4992617;28;20057;-70
2023/03/06 06:14:06;;;;;;;16.50;9.43;;;2.90;99.90;;;;;;5009202;28;20072;-70
2023/03/06 06:16:32;;;;;;;15.25;7.88;;;2.80;99.90;;;;;;4992698;28;20112;-70
2023/03/06 06:18:58;;;;;;;16.25;8.82;;;2.80;99.90;;;;;;5011019;28;20111;-71
2023/03/06 06:21:24;;;;;;;14.57;8.98;;;2.90;99.90;;;;;;5011804;28;20076;-71
2023/03/06 06:23:50;;;;;;;19.83;8.77;;;2.90;99.90;;;;;;4995579;28;20038;-72
2023/03/06 06:26:16;;;;;;;17.77;9.55;;;2.90;99.90;;;;;;4961515;28;20045;-70
2023/03/06 06:28:42;;;;;;;23.98;10.55;;;2.80;99.90;;;;;;5012357;28;20133;-69
2023/03/06 06:31:11;;;;;;;16.65;10.43;;;2.70;99.90;;;;;;4978708;28;20037;-70
2023/03/06 06:33:39;;;;;;;18.13;10.88;;;2.70;99.90;;;;;;5012108;28;20046;-70
2023/03/06 06:36:05;;;;;;;13.27;7.93;;;2.70;99.90;;;;;;5009494;28;20571;-70
2023/03/06 06:38:31;;;;;;;21.33;11.25;;;2.60;99.90;;;;;;5011310;28;20057;-70
2023/03/06 06:40:56;;;;;;;21.48;12.70;;;2.60;99.90;;;;;;4993243;28;20050;-69
2023/03/06 06:43:22;;;;;;;23.38;11.38;;;2.60;99.90;;;;;;5009915;28;20383;-70
2023/03/06 06:45:48;;;;;;;22.25;11.18;;;2.70;99.90;;;;;;5010666;28;20084;-70
2023/03/06 06:48:13;;;;;;;21.15;12.27;;;2.70;99.90;;;;;;4995890;28;20050;-70
2023/03/06 06:50:39;;;;;;;23.77;12.20;;;2.70;99.90;;;;;;5012382;28;20701;-70
2023/03/06 06:53:05;;;;;;;23.98;13.02;;;2.70;99.90;;;;;;5012094;28;20054;-72
2023/03/06 06:55:30;;;;;;;25.70;12.55;;;2.70;99.90;;;;;;4995948;28;20049;-71
2023/03/06 06:57:56;;;;;;;27.40;14.13;;;2.70;99.90;;;;;;4995279;28;20522;-70
2023/03/06 07:00:23;;;;;;;24.35;12.82;;;2.80;99.90;;;;;;4995994;28;20153;-71
2023/03/06 07:02:50;;;;;;;25.50;14.02;;;2.80;99.90;;;;;;4989956;28;20125;-70
2023/03/06 07:05:15;;;;;;;25.17;13.18;;;2.80;99.90;;;;;;5012745;28;20104;-70
2023/03/06 07:07:41;;;;;;;21.88;12.77;;;2.70;99.90;;;;;;4976848;28;20042;-70
2023/03/06 07:10:11;;;;;;;22.63;12.77;;;2.70;99.90;;;;;;5011586;28;20062;-71
2023/03/06 07:12:37;;;;;;;22.33;13.60;;;2.70;99.90;;;;;;4977950;28;20073;-70
2023/03/06 07:15:04;;;;;;;24.40;12.13;;;2.70;99.90;;;;;;4963136;28;20086;-71
2023/03/06 07:17:30;;;;;;;21.48;11.00;;;2.80;99.90;;;;;;4995276;28;20057;-70
2023/03/06 07:19:55;;;;;;;16.42;9.57;;;2.80;99.90;;;;;;5010035;28;20050;-70
2023/03/06 07:22:21;;;;;;;20.98;9.55;;;2.80;99.90;;;;;;5011925;28;20427;-70
2023/03/06 07:24:47;;;;;;;18.52;9.25;;;2.90;99.90;;;;;;4976429;28;20038;-70
2023/03/06 07:27:13;;;;;;;17.60;8.82;;;2.90;99.90;;;;;;4991547;28;20049;-70
2023/03/06 07:29:40;;;;;;;17.38;8.10;;;3.00;99.90;;;;;;5010822;28;20053;-70
2023/03/06 07:32:06;;;;;;;11.18;7.15;;;2.90;99.90;;;;;;5010520;28;20092;-70
2023/03/06 07:34:32;;;;;;;14.73;7.07;;;3.00;99.90;;;;;;5009756;28;20050;-70
2023/03/06 07:36:58;;;;;;;15.10;7.20;;;2.70;99.90;;;;;;5010756;28;20045;-69
2023/03/06 07:39:24;;;;;;;10.07;5.78;;;2.90;99.90;;;;;;5006963;28;20511;-70
2023/03/06 07:41:51;;;;;;;11.73;6.32;;;3.00;99.90;;;;;;5011641;28;20128;-69
2023/03/06 07:44:16;;;;;;;11.13;5.97;;;2.80;99.90;;;;;;5009627;28;20038;-70
2023/03/06 07:46:42;;;;;;;8.40;5.18;;;3.00;99.90;;;;;;4994565;28;20053;-69
2023/03/06 07:49:08;;;;;;;7.63;4.75;;;3.00;99.90;;;;;;4990193;28;20042;-70
2023/03/06 07:51:33;;;;;;;7.03;4.70;;;3.00;99.90;;;;;;5012910;28;20049;-70
2023/03/06 07:53:59;;;;;;;6.85;4.40;;;3.10;99.90;;;;;;5012031;28;20046;-70
2023/03/06 07:56:25;;;;;;;7.13;4.30;;;3.00;99.90;;;;;;5009913;28;20104;-70
2023/03/06 07:58:50;;;;;;;6.75;4.47;;;3.00;99.90;;;;;;5009383;28;20069;-70
2023/03/06 08:01:22;;;;;;;9.10;6.05;;;2.90;99.90;;;;;;5009689;28;20069;-70
2023/03/06 08:03:48;;;;;;;8.60;5.03;;;2.80;99.90;;;;;;5006209;28;20613;-70
2023/03/06 08:06:22;;;;;;;5.85;3.97;;;2.90;99.90;;;;;;5008291;28;20195;-70
2023/03/06 08:08:48;;;;;;;6.10;4.00;;;2.90;99.90;;;;;;5010231;28;20046;-70
2023/03/06 08:11:14;;;;;;;7.82;4.68;;;2.90;99.90;;;;;;5009707;28;20691;-72
2023/03/06 08:13:40;;;;;;;6.65;4.07;;;2.70;99.90;;;;;;4994034;28;20533;-71
2023/03/06 08:16:07;;;;;;;11.35;5.90;;;2.90;99.90;;;;;;4994871;28;20075;-71
2023/03/06 08:18:33;;;;;;;8.90;5.15;;;2.70;99.90;;;;;;4994535;28;20651;-71
2023/03/06 08:21:05;;;;;;;10.23;5.10;;;2.60;99.90;;;;;;5009648;28;20049;-71
2023/03/06 08:23:31;;;;;;;5.60;3.42;;;2.40;99.90;;;;;;5010742;28;20115;-71
2023/03/06 08:26:03;;;;;;;6.18;3.38;;;2.50;99.90;;;;;;4994152;28;20634;-71
2023/03/06 08:28:28;;;;;;;5.90;3.35;;;2.80;99.90;;;;;;5006462;28;20340;-71
2023/03/06 08:30:56;;;;;;;7.57;3.45;;;2.60;99.90;;;;;;5009315;28;20053;-71
2023/03/06 08:33:22;;;;;;;6.33;4.03;;;2.60;99.90;;;;;;4976791;28;20056;-71
2023/03/06 08:35:47;;;;;;;5.60;3.05;;;2.50;99.90;;;;;;5008513;28;20414;-70
2023/03/06 08:38:13;;;;;;;6.28;3.08;;;2.70;99.90;;;;;;4987266;28;20049;-70
2023/03/06 08:40:40;;;;;;;8.60;4.18;;;2.90;99.90;;;;;;4994513;28;20431;-71
2023/03/06 08:43:09;;;;;;;7.03;3.90;;;2.90;99.90;;;;;;5009828;28;20042;-70
2023/03/06 08:45:35;;;;;;;9.73;5.20;;;2.90;99.90;;;;;;5008978;28;20057;-71
2023/03/06 08:48:01;;;;;;;8.48;5.32;;;2.90;99.90;;;;;;5009888;28;20046;-71
2023/03/06 08:50:26;;;;;;;9.95;5.97;;;2.90;99.90;;;;;;5008054;28;20046;-72
2023/03/06 08:52:52;;;;;;;14.02;5.90;;;2.70;99.90;;;;;;4962555;28;20046;-71
2023/03/06 08:55:18;;;;;;;10.93;5.88;;;2.60;99.90;;;;;;5008088;28;20335;-71
2023/03/06 08:57:44;;;;;;;12.02;6.43;;;2.70;99.90;;;;;;5011167;28;20054;-71
2023/03/06 09:00:11;;;;;;;10.32;6.38;;;2.90;99.90;;;;;;4977244;28;20057;-70
2023/03/06 09:02:37;;;;;;;9.60;5.93;;;3.10;99.90;;;;;;4974488;28;20054;-70
2023/03/06 09:05:07;;;;;;;8.15;5.00;;;3.10;99.90;;;;;;4988662;28;20512;-70
2023/03/06 09:07:33;;;;;;;7.13;3.55;;;3.10;99.90;;;;;;4993147;28;20327;-70
2023/03/06 09:09:59;;;;;;;5.20;3.30;;;3.10;99.90;;;;;;4995804;28;20061;-70
2023/03/06 09:12:25;;;;;;;5.80;3.35;;;3.10;99.90;;;;;;5005005;28;20058;-71
2023/03/06 09:14:52;;;;;;;5.38;3.13;;;3.00;99.90;;;;;;5009132;28;20057;-70
2023/03/06 09:17:17;;;;;;;5.57;3.53;;;3.00;99.90;;;;;;5009598;28;20053;-71
2023/03/06 09:19:43;;;;;;;6.63;4.03;;;3.00;99.90;;;;;;4993510;28;20054;-73
2023/03/06 09:22:09;;;;;;;7.55;3.88;;;3.00;99.90;;;;;;5010159;28;20132;-71
2023/03/06 09:24:35;;;;;;;6.35;3.83;;;3.00;99.90;;;;;;4973270;28;20052;-71
2023/03/06 09:27:00;;;;;;;7.57;4.55;;;3.10;99.90;;;;;;4990141;28;20046;-70
2023/03/06 09:29:26;;;;;;;8.13;5.15;;;3.10;99.90;;;;;;4976749;28;20050;-70
2023/03/06 09:31:52;;;;;;;8.77;5.70;;;3.10;99.90;;;;;;5009422;28;20061;-70
2023/03/06 09:34:19;;;;;;;10.65;6.28;;;3.10;99.90;;;;;;5009602;28;20133;-70
2023/03/06 09:36:44;;;;;;;8.80;5.25;;;3.10;99.90;;;;;;5009007;28;20136;-70
2023/03/06 09:39:10;;;;;;;7.30;4.38;;;3.20;99.90;;;;;;5008381;28;20061;-70
2023/03/06 09:41:39;;;;;;;6.60;4.30;;;3.20;99.90;;;;;;5008926;28;20407;-70
2023/03/06 09:44:29;;;;;;;8.38;4.38;;;3.10;99.90;;;;;;4993244;28;20050;-71
2023/03/06 09:46:58;;;;;;;8.50;3.88;;;3.20;99.90;;;;;;4996370;28;20045;-71
2023/03/06 09:49:39;;;;;;;7.65;4.60;;;3.10;99.90;;;;;;5009034;28;20643;-71
2023/03/06 09:52:23;;;;;;;7.88;4.45;;;3.20;99.90;;;;;;5010958;28;20042;-70
2023/03/06 09:54:58;;;;;;;13.57;6.95;;;3.10;99.90;;;;;;5013817;28;20454;-70
2023/03/06 09:57:29;;;;;;;10.90;5.82;;;2.90;99.90;;;;;;4996487;28;20050;-70
2023/03/06 09:59:56;;;;;;;6.72;3.88;;;3.00;99.90;;;;;;4995111;28;20045;-70
2023/03/06 10:02:40;;;;;;;7.13;3.63;;;3.00;99.90;;;;;;4996181;28;20451;-70
2023/03/06 10:05:34;;;;;;;5.40;2.75;;;3.10;99.90;;;;;;5007109;28;20056;-70
2023/03/06 10:08:04;;;;;;;3.80;2.40;;;3.10;99.90;;;;;;5005546;28;20358;-70
2023/03/06 10:10:51;;;;;;;4.93;2.70;;;2.90;99.90;;;;;;4978952;28;20049;-70
2023/03/06 10:13:29;;;;;;;4.57;2.53;;;2.90;99.90;;;;;;5012735;28;20058;-70
2023/03/06 10:16:10;;;;;;;4.15;2.70;;;3.00;99.90;;;;;;5012376;28;20119;-70
2023/03/06 10:18:37;;;;;;;4.90;2.17;;;3.00;99.90;;;;;;4998166;28;20048;-71
2023/03/06 10:21:05;;;;;;;3.47;2.03;;;2.90;99.90;;;;;;4996215;28;20081;-71
2023/03/06 10:23:37;;;;;;;3.17;1.92;;;2.90;99.90;;;;;;5008250;28;20046;-70
2023/03/06 10:26:17;;;;;;;4.30;2.42;;;3.10;99.90;;;;;;5013535;28;20045;-70
2023/03/06 10:28:53;;;;;;;3.92;2.25;;;3.10;99.90;;;;;;5004290;28;20056;-70
2023/03/06 10:31:24;;;;;;;5.65;2.53;;;3.10;99.90;;;;;;5013127;28;20053;-70
2023/03/06 10:34:03;;;;;;;3.38;2.00;;;3.10;99.90;;;;;;5014930;28;20045;-70
2023/03/06 10:36:28;;;;;;;3.85;2.33;;;2.90;99.90;;;;;;4998100;28;20046;-70
2023/03/06 10:38:58;;;;;;;3.40;2.20;;;2.90;99.90;;;;;;5013395;28;20053;-70
2023/03/06 10:41:26;;;;;;;3.30;2.20;;;2.90;99.90;;;;;;5003115;28;20064;-70
2023/03/06 10:44:04;;;;;;;3.90;2.28;;;2.90;99.90;;;;;;4995725;28;20057;-70
2023/03/06 10:46:30;;;;;;;4.05;2.25;;;3.00;99.90;;;;;;5013303;28;20045;-70
2023/03/06 10:49:00;;;;;;;3.22;2.25;;;2.90;99.90;;;;;;4995946;28;20073;-70
2023/03/06 10:51:26;;;;;;;3.55;2.28;;;2.90;99.90;;;;;;5012099;28;20474;-70
2023/03/06 10:53:54;;;;;;;3.28;2.00;;;2.80;99.90;;;;;;5019117;28;20060;-70
2023/03/06 10:56:37;;;;;;;3.00;2.10;;;2.60;99.90;;;;;;4994894;28;20359;-70
2023/03/06 10:59:17;;;;;;;3.50;2.22;;;2.80;99.90;;;;;;4993515;28;20053;-70
2023/03/06 11:01:44;;;;;;;3.47;2.22;;;2.60;99.90;;;;;;5007400;28;20466;-72
2023/03/06 11:04:16;;;;;;;3.97;2.00;;;2.50;99.90;;;;;;4995894;28;20046;-71
2023/03/06 11:06:42;;;;;;;3.33;2.15;;;2.40;99.90;;;;;;5013192;28;20134;-70
2023/03/06 11:09:15;;;;;;;2.72;1.90;;;2.50;99.90;;;;;;4992951;28;20462;-70
2023/03/06 11:11:41;;;;;;;3.30;2.10;;;2.50;99.90;;;;;;5005468;28;20038;-70
2023/03/06 11:14:18;;;;;;;3.28;1.85;;;2.40;99.90;;;;;;4995348;28;20451;-69
2023/03/06 11:16:52;;;;;;;4.97;2.88;;;2.50;99.90;;;;;;5013088;28;20070;-70
2023/03/06 11:19:26;;;;;;;5.53;2.20;;;2.30;99.90;;;;;;4996059;28;20060;-71
2023/03/06 11:22:14;;;;;;;4.20;2.42;;;2.30;99.90;;;;;;4990139;28;20046;-71
2023/03/06 11:24:43;;;;;;;6.18;3.08;;;2.10;99.90;;;;;;5011730;28;20041;-71
2023/03/06 11:27:15;;;;;;;;;;;2.10;99.90;;;;;;4979758;28;20041;-71
2023/03/06 11:29:43;;;;;;;6.70;3.67;;;2.00;99.90;;;;;;4994989;28;20349;-71
2023/03/06 11:32:15;;;;;;;4.43;2.83;;;2.00;99.90;;;;;;4993706;28;20081;-72
2023/03/06 11:34:56;;;;;;;6.68;3.45;;;1.90;99.90;;;;;;5011336;28;20045;-71
2023/03/06 11:37:24;;;;;;;6.07;3.35;;;1.90;99.90;;;;;;4994620;28;20042;-72
2023/03/06 11:40:04;;;;;;;8.73;4.40;;;1.90;99.90;;;;;;5011287;28;20050;-71
2023/03/06 11:42:33;;;;;;;6.32;3.33;;;1.90;99.90;;;;;;5010082;28;20104;-71
2023/03/06 11:45:20;;;;;;;5.25;3.50;;;2.00;99.90;;;;;;4995091;28;20050;-73
2023/03/06 11:47:53;;;;;;;9.15;3.80;;;1.90;99.90;;;;;;4996277;28;20042;-73
2023/03/06 11:50:35;;;;;;;4.60;2.65;;;1.90;99.90;;;;;;5001874;28;20096;-74
2023/03/06 11:53:05;;;;;;;3.80;2.35;;;2.00;99.90;;;;;;4994630;28;20042;-70
2023/03/06 11:55:55;;;;;;;4.97;2.50;;;2.10;99.90;;;;;;5009606;28;20049;-70
2023/03/06 11:58:38;;;;;;;8.65;3.40;;;2.10;99.90;;;;;;5007772;28;20049;-70
2023/03/06 12:01:21;;;;;;;4.78;2.40;;;2.20;99.90;;;;;;5012236;28;20049;-70
2023/03/06 12:03:52;;;;;;;5.45;2.45;;;2.00;99.90;;;;;;5005607;28;20068;-70
2023/03/06 12:06:39;;;;;;;3.13;1.90;;;2.20;99.90;;;;;;5010821;28;20528;-69
2023/03/06 12:09:11;;;;;;;2.95;1.83;;;2.20;99.90;;;;;;4991263;28;20125;-70
2023/03/06 12:11:45;;;;;;;5.45;2.53;;;2.30;99.90;;;;;;5010928;28;20049;-70
2023/03/06 12:14:53;;;;;;;3.95;2.47;;;2.30;99.90;;;;;;5010348;28;20038;-70
2023/03/06 12:18:03;;;;;;;3.60;1.95;;;2.30;99.90;;;;;;4927422;28;20112;-69
2023/03/06 12:21:02;;;;;;;7.60;3.92;;;2.30;99.90;;;;;;5007956;28;20089;-70
2023/03/06 12:23:58;;;;;;;6.75;3.42;;;2.60;99.90;;;;;;4956964;28;20045;-70
2023/03/06 12:26:32;;;;;;;2.83;1.25;;;2.40;99.90;;;;;;4980063;28;20038;-70
2023/03/06 12:29:33;;;;;;;3.20;1.63;;;2.50;99.90;;;;;;4992547;28;20049;-71
2023/03/06 12:32:21;;;;;;;3.55;1.83;;;2.60;99.90;;;;;;4995829;28;20053;-69
2023/03/06 12:35:21;;;;;;;3.92;2.00;;;2.60;99.90;;;;;;4993794;28;20484;-71
2023/03/06 12:38:24;;;;;;;3.65;1.95;;;2.80;99.90;;;;;;5008962;28;20053;-70
2023/03/06 12:41:17;;;;;;;4.38;1.80;;;2.60;99.90;;;;;;5006557;28;20050;-69
2023/03/06 12:43:49;;;;;;;4.40;1.98;;;2.50;99.90;;;;;;4999131;28;20045;-70
2023/03/06 12:46:18;;;;;;;3.45;1.98;;;2.70;99.90;;;;;;4993576;28;20406;-70
2023/03/06 12:49:15;;;;;;;4.20;2.22;;;2.50;99.90;;;;;;4992755;28;20046;-71
2023/03/06 12:51:42;;;;;;;5.05;2.70;;;2.50;99.90;;;;;;4995655;28;20532;-71
2023/03/06 12:54:11;;;;;;;3.67;2.00;;;2.80;99.90;;;;;;4990435;28;20132;-71
2023/03/06 12:56:37;;;;;;;6.72;2.70;;;2.90;99.90;;;;;;4993339;28;20112;-71
2023/03/06 12:59:33;;;;;;;5.82;2.58;;;3.00;99.90;;;;;;4993691;28;20046;-71
2023/03/06 13:02:04;;;;;;;3.55;2.15;;;3.10;99.90;;;;;;4975673;28;20556;-71